Time;durP1;ratioP1;P1;durP2;ratioP2;P2;SDS_P1;SDS_P2;PMS_P1;PMS_P2;Temp;Humidity;BMP_temperature;BMP_pressure;BME280_temperature;BME280_humidity;BME280_pressure;Samples;Min_cycle;Max_cycle;Signal;HPM_P1;HPM_P2
2022/01/06 05:49:03;730166.00;2.43;1259.59;141275.00;0.47;244.77;;;;;6.60;1.00;;;;;;2281072;61;856;-89
2022/01/06 08:00:30;1677367.00;5.59;2981.53;215910.00;0.72;373.31;;;;;9.20;1.00;;;;;;2525984;40;3449;31
2022/01/06 08:07:55;151433.00;0.50;262.28;0.00;0.00;0.62;;;;;8.90;1.00;;;;;;2525678;55;3625;31
2022/01/06 11:16:08;235117.00;0.78;406.35;0.00;0.00;0.62;;;;;9.90;1.00;;;;;;2283159;61;888;-88
2022/01/06 11:50:43;582653.00;1.94;1004.28;78738.00;0.26;136.86;;;;;10.10;1.00;;;;;;2290616;60;1894;-89
2022/01/06 11:53:11;489568.00;1.63;843.87;91833.00;0.31;159.47;;;;;9.60;1.00;;;;;;2288640;60;1152;-88
2022/01/06 11:55:41;463544.00;1.55;799.08;85334.00;0.28;148.25;;;;;9.50;1.00;;;;;;2288576;60;936;-89
2022/01/06 11:58:12;647974.00;2.16;1117.13;93697.00;0.31;162.69;;;;;9.30;1.00;;;;;;2288685;60;1457;-88
2022/01/06 12:00:42;597177.00;1.99;1029.35;92895.00;0.31;161.31;;;;;9.50;1.00;;;;;;2288866;60;1084;-89
2022/01/06 12:03:11;457866.00;1.53;789.31;92763.00;0.31;161.08;;;;;9.80;1.00;;;;;;2288772;60;1161;-88
2022/01/06 12:05:44;791390.00;2.64;1366.11;128592.00;0.43;222.90;;;;;10.10;1.00;;;;;;2288816;60;1020;-88
2022/01/06 12:08:12;677709.00;2.26;1168.60;60001.00;0.20;104.48;;;;;10.20;1.00;;;;;;2288823;60;1338;-87
2022/01/06 12:10:40;396693.00;1.32;684.12;91471.00;0.30;158.85;;;;;10.20;1.00;;;;;;2288786;60;1918;-87
2022/01/06 12:13:07;531275.00;1.77;915.69;98422.00;0.33;170.85;;;;;10.80;1.00;;;;;;2288831;60;977;-87
2022/01/06 12:15:45;392890.00;1.31;677.58;93852.00;0.31;162.96;;;;;11.00;1.00;;;;;;2288817;60;1132;-87
2022/01/06 12:18:12;426422.00;1.42;735.23;86264.00;0.29;149.86;;;;;11.00;1.00;;;;;;2288802;60;1599;-87
2022/01/06 12:20:39;306596.00;1.02;529.26;114681.00;0.38;198.91;;;;;11.00;1.00;;;;;;2288694;60;1430;-88
2022/01/06 12:23:07;431690.00;1.44;744.29;88633.00;0.30;153.95;;;;;10.70;1.00;;;;;;2288786;60;1670;-88
2022/01/06 12:25:34;586894.00;1.96;1011.60;93568.00;0.31;162.47;;;;;10.30;1.00;;;;;;2288817;60;1414;-88
2022/01/06 12:28:02;318976.00;1.06;550.54;0.00;0.00;0.62;;;;;9.50;1.00;;;;;;2288727;60;1268;-88
2022/01/06 12:30:37;427611.00;1.43;737.28;0.00;0.00;0.62;;;;;9.00;1.00;;;;;;2288738;60;1926;-87
2022/01/06 12:33:07;447290.00;1.49;771.12;94960.00;0.32;164.87;;;;;8.30;1.00;;;;;;2288708;60;1250;-87
2022/01/06 12:35:43;448524.00;1.50;773.24;91540.00;0.31;158.97;;;;;8.40;1.00;;;;;;2288850;60;1220;-87
2022/01/06 12:38:13;703779.00;2.35;1213.79;97843.00;0.33;169.85;;;;;8.60;1.00;;;;;;2288666;60;1561;-88
2022/01/06 12:40:42;821355.00;2.74;1418.39;96576.00;0.32;167.66;;;;;8.20;1.00;;;;;;2288654;60;1039;-88
2022/01/06 12:43:21;645363.00;2.15;1112.61;110478.00;0.37;191.65;;;;;8.40;1.00;;;;;;2288682;60;1606;-88
2022/01/06 12:46:02;1056567.00;3.52;1832.92;161842.00;0.54;280.21;;;;;8.70;1.00;;;;;;2288621;60;1051;-88
2022/01/06 12:48:31;752587.00;2.51;1298.56;0.00;0.00;0.62;;;;;8.70;1.00;;;;;;2288490;60;1484;-88
2022/01/06 12:50:59;537107.00;1.79;925.74;0.00;0.00;0.62;;;;;8.30;1.00;;;;;;2288572;60;1921;-88
2022/01/06 12:53:31;601047.00;2.00;1036.03;0.00;0.00;0.62;;;;;8.50;1.00;;;;;;2288654;60;1042;-90
2022/01/06 12:55:59;519998.00;1.73;896.26;0.00;0.00;0.62;;;;;8.40;1.00;;;;;;2288497;60;1525;-88
2022/01/06 12:58:27;608027.00;2.03;1048.08;0.00;0.00;0.62;;;;;8.30;1.00;;;;;;2288506;60;1431;-88
2022/01/06 13:00:56;810308.00;2.70;1399.11;41273.00;0.14;72.09;;;;;8.30;1.00;;;;;;2288575;60;1453;-88
2022/01/06 13:03:31;610410.00;2.03;1052.20;0.00;0.00;0.62;;;;;8.30;1.00;;;;;;2288627;60;1183;-88
2022/01/06 13:06:01;587017.00;1.96;1011.81;0.00;0.00;0.62;;;;;9.00;1.00;;;;;;2288597;60;1637;-87
2022/01/06 13:08:31;544273.00;1.81;938.09;0.00;0.00;0.62;;;;;9.10;1.00;;;;;;2288443;60;1410;-88
2022/01/06 13:11:09;572462.00;1.91;986.69;0.00;0.00;0.62;;;;;8.90;1.00;;;;;;2288580;60;2013;-88
2022/01/06 13:13:52;517517.00;1.73;891.99;0.00;0.00;0.62;;;;;8.50;1.00;;;;;;2288698;60;1041;-88
2022/01/06 13:16:22;481735.00;1.61;830.38;0.00;0.00;0.62;;;;;8.20;1.00;;;;;;2288228;60;1131;-89
2022/01/06 13:19:01;469595.00;1.57;809.49;0.00;0.00;0.62;;;;;7.70;1.00;;;;;;2288543;60;1373;-89
2022/01/06 13:21:32;377181.00;1.26;650.58;0.00;0.00;0.62;;;;;7.20;1.00;;;;;;2288649;60;1005;-88
2022/01/06 13:24:15;429748.00;1.43;740.95;0.00;0.00;0.62;;;;;7.10;1.00;;;;;;2288496;60;1446;-88
2022/01/06 13:26:55;502116.00;1.67;865.47;0.00;0.00;0.62;;;;;7.30;1.00;;;;;;2288644;60;1590;-87
2022/01/06 13:29:28;399886.00;1.33;689.61;0.00;0.00;0.62;;;;;7.20;1.00;;;;;;2288469;60;1457;-87
2022/01/06 13:32:00;432684.00;1.44;746.00;0.00;0.00;0.62;;;;;7.30;1.00;;;;;;2288520;60;1996;-88
2022/01/06 13:34:27;706556.00;2.36;1218.61;147.00;0.00;0.87;;;;;7.80;1.00;;;;;;2288202;60;1682;-88
2022/01/06 13:37:07;117742184.00;392.47;66119292.00;0.00;0.00;0.62;;;;;8.00;1.00;;;;;;2288430;60;968;-88
2022/01/06 13:39:38;484047.00;1.61;834.36;0.00;0.00;0.62;;;;;8.30;1.00;;;;;;2288229;60;1572;-89
2022/01/06 13:42:07;433028.00;1.44;746.59;0.00;0.00;0.62;;;;;8.20;1.00;;;;;;2288147;60;1647;-89
2022/01/06 13:44:34;394960.00;1.32;681.14;0.00;0.00;0.62;;;;;8.20;1.00;;;;;;2288377;60;1826;-89
2022/01/06 13:47:10;357820.00;1.19;617.30;0.00;0.00;0.62;;;;;8.40;1.00;;;;;;2288317;60;1243;-89
2022/01/06 13:52:25;470270.00;1.57;810.65;0.00;0.00;0.62;;;;;8.70;1.00;;;;;;2288411;60;1994;-88
2022/01/06 13:54:56;503610.00;1.68;868.04;0.00;0.00;0.62;;;;;9.10;1.00;;;;;;2288309;60;1738;-87
2022/01/06 13:57:23;560055.00;1.87;965.30;42636.00;0.14;74.45;;;;;9.20;1.00;;;;;;2288338;60;1777;-87
2022/01/06 13:59:50;750472.00;2.50;1294.88;0.00;0.00;0.62;;;;;8.60;1.00;;;;;;2288524;60;961;-89
2022/01/06 14:02:19;311743.00;1.04;538.11;0.00;0.00;0.62;;;;;8.20;1.00;;;;;;2288277;60;952;-88
2022/01/06 14:04:46;322052.00;1.07;555.83;0.00;0.00;0.62;;;;;7.90;1.00;;;;;;2288162;60;1066;-88
2022/01/06 14:07:14;549576.00;1.83;947.23;0.00;0.00;0.62;;;;;7.60;1.00;;;;;;2288200;60;1442;-89
2022/01/06 14:09:42;456651.00;1.52;787.22;0.00;0.00;0.62;;;;;7.70;1.00;;;;;;2288315;60;974;-89
2022/01/06 14:12:12;484785.00;1.62;835.63;0.00;0.00;0.62;;;;;7.90;1.00;;;;;;2288168;60;2020;-88
2022/01/06 14:14:39;529041.00;1.76;911.84;0.00;0.00;0.62;;;;;8.30;1.00;;;;;;2288060;60;1593;-89
2022/01/06 14:17:06;695701.00;2.32;1199.78;18916.00;0.06;33.39;;;;;8.10;1.00;;;;;;2288154;60;1563;-88
2022/01/06 14:19:38;495745.00;1.65;854.50;0.00;0.00;0.62;;;;;8.20;1.00;;;;;;2288248;60;1205;-89
2022/01/06 14:22:06;122478648.00;408.26;74432064.00;0.00;0.00;0.62;;;;;8.60;1.00;;;;;;2288225;60;1143;-88
2022/01/06 14:24:35;648721.00;2.16;1118.42;7380.00;0.02;13.41;;;;;9.20;1.00;;;;;;2288133;60;1740;-89
2022/01/06 14:27:02;442685.00;1.48;763.20;0.00;0.00;0.62;;;;;9.40;1.00;;;;;;2288152;60;964;-90
2022/01/06 14:29:31;623964.00;2.08;1075.62;43563.00;0.15;76.05;;;;;9.60;1.00;;;;;;2288129;60;1245;-89
2022/01/06 14:31:59;391702.00;1.31;675.54;0.00;0.00;0.62;;;;;9.50;1.00;;;;;;2288038;60;2021;-88
2022/01/06 14:34:26;351840.00;1.17;607.02;0.00;0.00;0.62;;;;;9.40;1.00;;;;;;2287963;60;1155;-88
2022/01/06 14:36:53;409765.00;1.37;706.59;6976.00;0.02;12.71;;;;;9.30;1.00;;;;;;2288049;60;1032;-88
2022/01/06 14:39:20;433527.00;1.45;747.45;0.00;0.00;0.62;;;;;8.90;1.00;;;;;;2288101;60;1440;-88
2022/01/06 14:41:47;400988.00;1.34;691.50;0.00;0.00;0.62;;;;;8.60;1.00;;;;;;2288155;60;1128;-88
2022/01/06 14:44:14;300567.00;1.00;518.89;0.00;0.00;0.62;;;;;8.30;1.00;;;;;;2287972;60;1099;-88
2022/01/06 14:46:43;328825.00;1.10;567.47;0.00;0.00;0.62;;;;;8.50;1.00;;;;;;2287991;60;1070;-87
2022/01/06 14:49:12;412099.00;1.37;710.61;0.00;0.00;0.62;;;;;9.20;1.00;;;;;;2287722;60;1553;-89
2022/01/06 14:51:40;483289.00;1.61;833.06;0.00;0.00;0.62;;;;;9.20;1.00;;;;;;2287949;60;2004;-89
2022/01/06 14:54:07;397264.00;1.32;685.10;0.00;0.00;0.62;;;;;9.40;1.00;;;;;;2288282;60;1027;-88
2022/01/06 14:56:34;515259.00;1.72;888.10;0.00;0.00;0.62;;;;;9.60;1.00;;;;;;2288231;60;1759;-87
2022/01/06 14:59:01;504595.00;1.68;869.74;0.00;0.00;0.62;;;;;9.60;1.00;;;;;;2287852;60;1439;-89
2022/01/06 15:01:29;524890.00;1.75;904.69;0.00;0.00;0.62;;;;;9.70;1.00;;;;;;2288226;60;1021;-87
2022/01/06 15:03:57;657228.00;2.19;1133.14;62022.00;0.21;107.97;;;;;9.70;1.00;;;;;;2288043;60;974;-88
2022/01/06 15:06:24;467524.00;1.56;805.93;42164.00;0.14;73.63;;;;;9.20;1.00;;;;;;2287742;60;1461;-88
2022/01/06 15:08:51;835748.00;2.79;1443.54;104704.00;0.35;181.69;;;;;8.40;1.00;;;;;;2287581;60;1320;-88
2022/01/06 15:13:46;609527.00;2.03;1050.67;0.00;0.00;0.62;;;;;8.50;1.00;;;;;;2289174;60;1393;-88
2022/01/06 15:16:13;421765.00;1.41;727.23;0.00;0.00;0.62;;;;;9.60;1.00;;;;;;2274646;61;1604;-88
2022/01/06 15:18:41;398562.00;1.33;687.33;0.00;0.00;0.62;;;;;10.00;1.00;;;;;;2274884;61;1130;-89
2022/01/06 15:21:09;388870.00;1.30;670.67;0.00;0.00;0.62;;;;;10.50;1.00;;;;;;2276033;61;1401;-88
2022/01/06 15:23:36;626374.00;2.09;1079.78;47871.00;0.16;83.50;;;;;10.60;1.00;;;;;;2278515;61;1092;-88
2022/01/06 15:26:04;451444.00;1.50;778.27;6262.00;0.02;11.47;;;;;10.70;1.00;;;;;;2277961;61;1563;-88
2022/01/06 15:28:31;417168.00;1.39;719.32;0.00;0.00;0.62;;;;;10.90;1.00;;;;;;2267867;61;1040;-87
2022/01/06 15:30:59;469694.00;1.57;809.66;0.00;0.00;0.62;;;;;11.50;1.00;;;;;;2265927;61;1960;-88
2022/01/06 15:33:26;309391.00;1.03;534.06;0.00;0.00;0.62;;;;;11.70;1.00;;;;;;2266596;61;1192;-89
2022/01/06 15:35:53;442858.00;1.48;763.50;0.00;0.00;0.62;;;;;11.60;1.00;;;;;;2266531;61;1092;-88
2022/01/06 15:38:22;407120.00;1.36;702.05;33995.00;0.11;59.50;;;;;11.70;1.00;;;;;;2262375;61;958;-88
2022/01/06 15:40:50;332901.00;1.11;574.47;0.00;0.00;0.62;;;;;11.80;1.00;;;;;;2266779;61;1293;-88
2022/01/06 15:43:18;298149.00;0.99;514.74;0.00;0.00;0.62;;;;;11.90;1.00;;;;;;2270669;61;1064;-89
2022/01/06 15:45:46;296571.00;0.99;512.03;0.00;0.00;0.62;;;;;11.60;1.00;;;;;;2262786;61;1137;-89
2022/01/06 15:48:13;311409.00;1.04;537.53;0.00;0.00;0.62;;;;;11.60;1.00;;;;;;2259960;61;1035;-89
2022/01/06 15:50:41;401536.00;1.34;692.45;0.00;0.00;0.62;;;;;11.50;1.00;;;;;;2266177;61;2030;-88
2022/01/06 15:53:08;404871.00;1.35;698.18;0.00;0.00;0.62;;;;;11.20;1.00;;;;;;2266923;61;1089;-89
2022/01/06 15:55:37;458129.00;1.53;789.77;36509.00;0.12;63.85;;;;;11.20;1.00;;;;;;2267644;61;1762;-89
2022/01/06 15:58:05;408361.00;1.36;704.18;0.00;0.00;0.62;;;;;11.40;1.00;;;;;;2275908;61;1073;-88
2022/01/06 16:00:47;403674.00;1.35;696.12;17457.00;0.06;30.87;;;;;11.60;1.00;;;;;;2267553;61;1354;-87
2022/01/06 16:05:59;715279.00;2.38;1233.74;159038.00;0.53;275.38;;;;;12.10;1.00;;;;;;2279914;61;1054;-88
2022/01/06 16:08:26;349023.00;1.16;602.18;0.00;0.00;0.62;;;;;12.20;1.00;;;;;;2279674;61;1694;-88
2022/01/06 16:10:55;383823.00;1.28;662.00;0.00;0.00;0.62;;;;;12.20;1.00;;;;;;2279974;61;2010;-87
2022/01/06 16:13:23;360621.00;1.20;622.12;0.00;0.00;0.62;;;;;12.30;1.00;;;;;;2279976;61;1600;-88
2022/01/06 16:15:50;489098.00;1.63;843.06;16056.00;0.05;28.44;;;;;12.40;1.00;;;;;;2280042;61;1545;-88
2022/01/06 16:18:17;384738.00;1.28;663.57;0.00;0.00;0.62;;;;;12.20;1.00;;;;;;2283127;60;962;-88
2022/01/06 16:20:45;314691.00;1.05;543.17;0.00;0.00;0.62;;;;;12.30;1.00;;;;;;2287937;60;1635;-88
2022/01/06 16:23:12;488058.00;1.63;841.27;23950.00;0.08;42.11;;;;;12.30;1.00;;;;;;2288225;60;1635;-88
2022/01/06 16:25:39;617200.00;2.06;1063.93;0.00;0.00;0.62;;;;;12.10;1.00;;;;;;2288373;60;1736;-88
2022/01/06 16:28:09;498524.00;1.66;859.28;0.00;0.00;0.62;;;;;12.00;1.00;;;;;;2288452;60;1626;-89
2022/01/06 16:30:44;570752.00;1.90;983.74;92995.00;0.31;161.48;;;;;11.90;1.00;;;;;;2288309;60;1251;-88
2022/01/06 16:33:11;475733.00;1.59;820.05;0.00;0.00;0.62;;;;;11.50;1.00;;;;;;2288342;60;2024;-88
2022/01/06 16:35:39;600212.00;2.00;1034.59;0.00;0.00;0.62;;;;;11.40;1.00;;;;;;2288491;60;1440;-88
2022/01/06 16:38:07;433682.00;1.45;747.72;36068.00;0.12;63.08;;;;;11.40;1.00;;;;;;2288299;60;1392;-89
2022/01/06 16:40:35;580829.00;1.94;1001.13;80412.00;0.27;139.75;;;;;11.40;1.00;;;;;;2288207;60;1607;-88
2022/01/06 16:43:14;710768.00;2.37;1225.92;34234.00;0.11;59.91;;;;;11.50;1.00;;;;;;2288383;60;1594;-87
2022/01/06 16:45:43;404109.00;1.35;696.87;0.00;0.00;0.62;;;;;11.40;1.00;;;;;;2288458;60;1064;-87
2022/01/06 16:48:11;243626.00;0.81;420.99;0.00;0.00;0.62;;;;;11.30;1.00;;;;;;2288365;60;1636;-89
2022/01/06 16:50:39;415951.00;1.39;717.23;0.00;0.00;0.62;;;;;11.20;1.00;;;;;;2288404;60;1251;-89
2022/01/06 16:53:07;524537.00;1.75;904.08;0.00;0.00;0.62;;;;;10.70;1.00;;;;;;2288082;60;2024;-89
2022/01/06 16:55:40;605685.00;2.02;1044.04;0.00;0.00;0.62;;;;;10.60;1.00;;;;;;2288479;60;1646;-88
2022/01/06 16:58:16;424575.00;1.42;732.06;0.00;0.00;0.62;;;;;10.40;1.00;;;;;;2288566;60;1146;-88
2022/01/06 17:00:44;311817.00;1.04;538.23;0.00;0.00;0.62;;;;;10.60;1.00;;;;;;2288488;60;1680;-88
2022/01/06 17:03:11;297254.00;0.99;513.20;74813.00;0.25;130.08;;;;;10.70;1.00;;;;;;2288557;60;1571;-88
2022/01/06 17:05:39;448413.00;1.49;773.05;18590.00;0.06;32.83;;;;;10.70;1.00;;;;;;2288467;60;896;-88
2022/01/06 17:08:08;416906.00;1.39;718.87;0.00;0.00;0.62;;;;;10.20;1.00;;;;;;2288203;60;1570;-87
2022/01/06 17:10:35;422465.00;1.41;728.43;0.00;0.00;0.62;;;;;10.00;1.00;;;;;;2288472;60;1250;-89
2022/01/06 17:13:11;627848.00;2.09;1082.33;52955.00;0.18;92.30;;;;;8.90;1.00;;;;;;2288339;60;2014;-90
2022/01/06 17:15:43;546104.00;1.82;941.24;27473.00;0.09;48.21;;;;;8.20;1.00;;;;;;2288483;60;1593;-88
2022/01/06 17:18:19;557160.00;1.86;960.30;0.00;0.00;0.62;;;;;7.60;1.00;;;;;;2288403;60;1718;-88
2022/01/06 17:20:50;527992.00;1.76;910.03;0.00;0.00;0.62;;;;;7.70;1.00;;;;;;2288373;60;1540;-88
2022/01/06 17:23:21;759252.00;2.53;1310.15;57567.00;0.19;100.27;;;;;7.90;1.00;;;;;;2275778;61;1085;-88
2022/01/06 17:25:48;674281.00;2.25;1162.67;17784.00;0.06;31.43;;;;;8.20;1.00;;;;;;2275612;61;1062;-88
2022/01/06 17:28:23;544820.00;1.82;939.03;0.00;0.00;0.62;;;;;8.00;1.00;;;;;;2275773;61;965;-88
2022/01/06 17:30:51;532937.00;1.78;918.55;0.00;0.00;0.62;;;;;7.70;1.00;;;;;;2275513;61;1613;-89
2022/01/06 17:33:27;787063.00;2.62;1358.57;34827.00;0.12;60.94;;;;;7.90;1.00;;;;;;2275468;61;2017;-88
2022/01/06 17:36:06;733318.00;2.44;1265.07;0.00;0.00;0.62;;;;;8.20;1.00;;;;;;2275471;61;1626;-87
2022/01/06 17:38:54;805106.00;2.68;1390.03;103735.00;0.35;180.02;;;;;8.00;1.00;;;;;;2275649;61;1521;-88
2022/01/06 17:41:27;727382.00;2.42;1254.76;90114.00;0.30;156.50;;;;;7.40;1.00;;;;;;2281631;60;1382;-88
2022/01/06 17:43:58;123430704.00;411.44;76182984.00;55331.00;0.18;96.40;;;;;7.40;1.00;;;;;;2288301;60;1654;-88
2022/01/06 17:46:33;953624.00;3.18;1650.50;58461.00;0.19;101.82;;;;;7.50;1.00;;;;;;2288353;60;1472;-88
2022/01/06 17:49:21;918912.00;3.06;1589.36;26331.00;0.09;46.23;;;;;7.40;1.00;;;;;;2288355;60;1618;-87
2022/01/06 17:56:16;731696.00;2.44;1262.25;0.00;0.00;0.62;;;;;7.40;1.00;;;;;;2271378;61;1077;-88
2022/01/06 18:35:23;738282.00;2.46;1273.69;74631.00;0.25;129.76;;;;;7.10;1.00;;;;;;2223994;62;1257;-89
2022/01/06 18:40:41;706590.00;2.36;1218.67;0.00;0.00;0.62;;;;;7.80;1.00;;;;;;2226974;62;1547;-88
2022/01/06 18:43:40;754559.00;2.52;1301.99;8639.00;0.03;15.59;;;;;8.40;1.00;;;;;;2227659;62;1708;-88
2022/01/06 18:46:25;581115.00;1.94;1001.62;0.00;0.00;0.62;;;;;9.10;1.00;;;;;;2227617;62;1446;-88
2022/01/06 18:49:08;635295.00;2.12;1095.20;0.00;0.00;0.62;;;;;9.00;1.00;;;;;;2227318;62;1631;-88
2022/01/06 18:51:53;540946.00;1.80;932.35;0.00;0.00;0.62;;;;;9.20;1.00;;;;;;2229802;62;2021;-89
2022/01/06 18:54:20;379406.00;1.26;654.40;0.00;0.00;0.62;;;;;8.70;1.00;;;;;;2241502;61;1668;-89
2022/01/06 18:56:48;430468.00;1.43;742.19;0.00;0.00;0.62;;;;;7.80;1.00;;;;;;2249953;61;1595;-88
2022/01/06 18:59:18;664664.00;2.22;1146.01;35377.00;0.12;61.89;;;;;7.80;1.00;;;;;;2259206;61;1123;-88
2022/01/06 19:01:45;517356.00;1.72;891.71;0.00;0.00;0.62;;;;;7.80;1.00;;;;;;2276243;60;1325;-88
2022/01/06 19:04:18;484258.00;1.61;834.73;0.00;0.00;0.62;;;;;7.80;1.00;;;;;;2287880;60;1743;-89
2022/01/06 19:06:50;596612.00;1.99;1028.37;0.00;0.00;0.62;;;;;7.90;1.00;;;;;;2288081;60;1591;-88
2022/01/06 19:09:19;675348.00;2.25;1164.51;26517.00;0.09;46.55;;;;;8.50;1.00;;;;;;2288047;60;1628;-88
2022/01/06 19:11:48;509012.00;1.70;877.34;0.00;0.00;0.62;;;;;8.60;1.00;;;;;;2287724;60;1914;-88
2022/01/06 19:14:15;618563.00;2.06;1066.28;1543.00;0.01;3.29;;;;;8.50;1.00;;;;;;2288004;60;1142;-88
2022/01/06 19:16:50;487301.00;1.62;839.96;0.00;0.00;0.62;;;;;8.50;1.00;;;;;;2287985;60;1695;-89
2022/01/06 19:19:18;725531.00;2.42;1251.54;50537.00;0.17;88.11;;;;;8.40;1.00;;;;;;2288128;60;1118;-88
2022/01/06 19:21:45;386314.00;1.29;666.28;0.00;0.00;0.62;;;;;8.00;1.00;;;;;;2288064;60;1453;-88
2022/01/06 19:24:17;738837.00;2.46;1274.65;0.00;0.00;0.62;;;;;7.90;1.00;;;;;;2288074;60;1645;-90
2022/01/06 19:26:51;795432.00;2.65;1373.16;0.00;0.00;0.62;;;;;7.90;1.00;;;;;;2288070;60;1782;-89
2022/01/06 19:29:19;443556.00;1.48;764.70;0.00;0.00;0.62;;;;;8.00;1.00;;;;;;2279485;61;946;-89
2022/01/06 19:31:48;270505.00;0.90;467.21;0.00;0.00;0.62;;;;;8.50;1.00;;;;;;2267397;61;1915;-88
2022/01/06 19:34:18;578047.00;1.93;996.33;0.00;0.00;0.62;;;;;8.20;1.00;;;;;;2255951;61;939;-88
2022/01/06 19:36:51;791298.00;2.64;1365.95;33970.00;0.11;59.45;;;;;7.90;1.00;;;;;;2255951;61;1053;-88
2022/01/06 19:39:19;542637.00;1.81;935.27;86976.00;0.29;151.09;;;;;8.10;1.00;;;;;;2255898;61;974;-89
2022/01/06 19:41:46;793391.00;2.64;1369.60;98728.00;0.33;171.38;;;;;7.90;1.00;;;;;;2255915;61;1306;-89
2022/01/06 19:44:13;790753.00;2.64;1365.00;96061.00;0.32;166.77;;;;;7.80;1.00;;;;;;2255834;61;1713;-89
2022/01/06 19:46:41;706414.00;2.35;1218.36;99102.00;0.33;172.02;;;;;8.00;1.00;;;;;;2257258;61;1539;-89
2022/01/06 19:49:09;363356.00;1.21;626.82;0.00;0.00;0.62;;;;;8.40;1.00;;;;;;2266293;61;1198;-89
2022/01/06 19:51:38;679820.00;2.27;1172.26;0.00;0.00;0.62;;;;;9.00;1.00;;;;;;2278255;60;1559;-89
2022/01/06 19:54:09;515497.00;1.72;888.51;0.00;0.00;0.62;;;;;9.10;1.00;;;;;;2288735;60;2006;-89
2022/01/06 19:56:37;798822.00;2.66;1379.07;104264.00;0.35;180.93;;;;;8.50;1.00;;;;;;2288728;60;1689;-89
2022/01/06 19:59:04;919179.00;3.06;1589.83;138768.00;0.46;240.45;;;;;8.20;1.00;;;;;;2276035;61;1005;-89
2022/01/06 20:01:31;599656.00;2.00;1033.63;102949.00;0.34;178.66;;;;;8.00;1.00;;;;;;2269288;61;1415;-89
2022/01/06 20:04:01;818431.00;2.73;1413.29;180749.00;0.60;312.78;;;;;7.70;1.00;;;;;;2269262;61;1039;-88
2022/01/06 20:06:28;425735.00;1.42;734.05;0.00;0.00;0.62;;;;;8.00;1.00;;;;;;2276054;61;1111;-89
2022/01/06 20:08:55;452475.00;1.51;780.04;0.00;0.00;0.62;;;;;8.40;1.00;;;;;;2269282;61;1030;-89
2022/01/06 20:11:24;463830.00;1.55;799.57;1332.00;0.00;2.93;;;;;8.90;1.00;;;;;;2267701;61;1305;-88
2022/01/06 20:13:51;491055.00;1.64;846.42;0.00;0.00;0.62;;;;;9.60;1.00;;;;;;2257783;61;2013;-89
2022/01/06 20:16:18;467073.00;1.56;805.15;0.00;0.00;0.62;;;;;10.00;1.00;;;;;;2261380;61;993;-87
2022/01/06 20:18:48;472194.00;1.57;813.96;6575.00;0.02;12.01;;;;;9.50;1.00;;;;;;2271550;61;1020;-89
2022/01/06 20:21:18;120569408.00;401.90;71002136.00;0.00;0.00;0.62;;;;;8.90;1.00;;;;;;2265163;61;1235;-88
2022/01/06 20:23:45;705583.00;2.35;1216.92;0.00;0.00;0.62;;;;;8.60;1.00;;;;;;2271517;61;1624;-89
2022/01/06 20:26:28;388850.00;1.30;670.64;0.00;0.00;0.62;;;;;9.30;1.00;;;;;;2271757;61;1047;-89
2022/01/06 20:28:56;326723.00;1.09;563.85;0.00;0.00;0.62;;;;;9.60;1.00;;;;;;2261759;61;1529;-89
2022/01/06 20:31:23;406167.00;1.35;700.41;0.00;0.00;0.62;;;;;10.20;1.00;;;;;;2267694;61;1365;-89
2022/01/06 20:33:52;272584.00;0.91;470.79;0.00;0.00;0.62;;;;;10.20;1.00;;;;;;2269845;61;2010;-88
2022/01/06 20:36:20;543558.00;1.81;936.86;0.00;0.00;0.62;;;;;9.90;1.00;;;;;;2267567;61;1081;-88
2022/01/06 20:38:47;381213.00;1.27;657.51;0.00;0.00;0.62;;;;;10.10;1.00;;;;;;2267748;61;1009;-88
2022/01/06 20:41:14;471826.00;1.57;813.33;25136.00;0.08;44.16;;;;;9.60;1.00;;;;;;2257585;61;1361;-88
2022/01/06 20:43:43;778725.00;2.60;1344.04;65912.00;0.22;114.70;;;;;9.40;1.00;;;;;;2263575;61;1058;-89
2022/01/06 20:46:18;447705.00;1.49;771.83;0.00;0.00;0.62;;;;;9.60;1.00;;;;;;2264327;61;1172;-89
2022/01/06 20:51:30;542736.00;1.81;935.44;50925.00;0.17;88.79;;;;;10.00;1.00;;;;;;2263471;61;1401;-89
2022/01/06 20:53:57;321597.00;1.07;555.04;0.00;0.00;0.62;;;;;9.50;1.00;;;;;;2253989;61;1932;-89
2022/01/06 20:56:26;726249.00;2.42;1252.79;82939.00;0.28;144.11;;;;;9.00;1.00;;;;;;2251593;61;1141;-90
2022/01/06 20:58:57;472894.00;1.58;815.17;0.00;0.00;0.62;;;;;8.90;1.00;;;;;;2251780;61;945;-89
2022/01/06 21:01:24;611068.00;2.04;1053.33;98822.00;0.33;171.54;;;;;9.00;1.00;;;;;;2255720;61;1287;-89
2022/01/06 21:03:52;945973.00;3.15;1637.01;180611.00;0.60;312.54;;;;;9.30;1.00;;;;;;2263696;61;1100;-88
2022/01/06 21:06:20;534798.00;1.78;921.76;0.00;0.00;0.62;;;;;9.70;1.00;;;;;;2264807;61;1048;-89
2022/01/06 21:08:48;605963.00;2.02;1044.52;39676.00;0.13;69.33;;;;;10.00;1.00;;;;;;2267651;61;1072;-88
2022/01/06 21:11:15;396171.00;1.32;683.22;0.00;0.00;0.62;;;;;9.90;1.00;;;;;;2261552;61;1251;-88
2022/01/06 21:13:42;403181.00;1.34;695.27;0.00;0.00;0.62;;;;;9.40;1.00;;;;;;2266286;61;1927;-88
2022/01/06 21:16:11;529208.00;1.76;912.13;0.00;0.00;0.62;;;;;9.60;1.00;;;;;;2279869;61;1058;-88
2022/01/06 21:18:38;273195.00;0.91;471.84;0.00;0.00;0.62;;;;;9.90;1.00;;;;;;2271577;61;1140;-88
2022/01/06 21:21:06;321271.00;1.07;554.48;0.00;0.00;0.62;;;;;10.00;1.00;;;;;;2267534;61;1405;-88
2022/01/06 21:23:33;329425.00;1.10;568.50;0.00;0.00;0.62;;;;;10.40;1.00;;;;;;2267685;61;1058;-89
2022/01/06 21:26:02;406727.00;1.36;701.37;0.00;0.00;0.62;;;;;10.70;1.00;;;;;;2260908;61;1488;-88
2022/01/06 21:28:29;312806.00;1.04;539.93;0.00;0.00;0.62;;;;;11.00;1.00;;;;;;2268135;61;1122;-87
2022/01/06 21:30:56;390392.00;1.30;673.29;0.00;0.00;0.62;;;;;10.90;1.00;;;;;;2271519;61;1668;-88
2022/01/06 21:33:24;355327.00;1.18;613.02;39534.00;0.13;69.08;;;;;10.50;1.00;;;;;;2271568;61;2000;-88
2022/01/06 21:35:51;493879.00;1.65;851.29;0.00;0.00;0.62;;;;;10.30;1.00;;;;;;2272149;61;1050;-88
2022/01/06 21:38:19;267203.00;0.89;461.53;0.00;0.00;0.62;;;;;9.90;1.00;;;;;;2277317;60;1677;-88
2022/01/06 21:40:47;353675.00;1.18;610.18;0.00;0.00;0.62;;;;;9.90;1.00;;;;;;2288424;60;1383;-87
2022/01/06 21:43:15;322807.00;1.08;557.12;0.00;0.00;0.62;;;;;10.10;1.00;;;;;;2288277;60;1547;-88
2022/01/06 21:45:42;174938.00;0.58;302.77;0.00;0.00;0.62;;;;;10.40;1.00;;;;;;2288401;60;1033;-88
2022/01/06 21:48:10;334847.00;1.12;577.82;0.00;0.00;0.62;;;;;10.40;1.00;;;;;;2288358;60;1733;-88
2022/01/06 21:50:40;387239.00;1.29;667.87;0.00;0.00;0.62;;;;;10.40;1.00;;;;;;2288360;60;1369;-89
2022/01/06 21:53:07;305955.00;1.02;528.16;0.00;0.00;0.62;;;;;10.30;1.00;;;;;;2288424;60;2008;-88
2022/01/06 21:55:35;648680.00;2.16;1118.35;0.00;0.00;0.62;;;;;10.30;1.00;;;;;;2288176;60;978;-87
2022/01/06 21:58:03;484102.00;1.61;834.46;16075.00;0.05;28.47;;;;;9.80;1.00;;;;;;2288351;60;1099;-88
2022/01/06 22:02:59;428053.00;1.43;738.04;0.00;0.00;0.62;;;;;8.10;1.00;;;;;;2286114;60;1395;-89
2022/01/06 22:05:26;425591.00;1.42;733.80;0.00;0.00;0.62;;;;;7.80;1.00;;;;;;2284254;60;1114;-88
2022/01/06 22:07:56;398995.00;1.33;688.08;15552.00;0.05;27.57;;;;;7.60;1.00;;;;;;2284327;60;1126;-88
2022/01/06 22:10:23;260618.00;0.87;450.21;0.00;0.00;0.62;;;;;7.30;1.00;;;;;;2284285;60;1095;-88
2022/01/06 22:12:51;296730.00;0.99;512.30;0.00;0.00;0.62;;;;;7.40;1.00;;;;;;2283970;60;2014;-88
2022/01/06 22:15:18;368519.00;1.23;635.69;0.00;0.00;0.62;;;;;7.90;1.00;;;;;;2284311;60;998;-89
2022/01/06 22:17:45;301783.00;1.01;520.98;0.00;0.00;0.62;;;;;8.50;1.00;;;;;;2284020;61;1053;-90
2022/01/06 22:20:13;586367.00;1.95;1010.69;0.00;0.00;0.62;;;;;9.20;1.00;;;;;;2283946;61;1129;-90
2022/01/06 22:22:42;365230.00;1.22;630.04;0.00;0.00;0.62;;;;;9.90;1.00;;;;;;2283900;60;1391;-88
2022/01/06 22:25:13;412392.00;1.37;711.11;0.00;0.00;0.62;;;;;10.00;1.00;;;;;;2284050;61;1609;-87
2022/01/06 22:27:42;514938.00;1.72;887.55;0.00;0.00;0.62;;;;;9.90;1.00;;;;;;2284088;60;1681;-88
2022/01/06 22:30:12;265529.00;0.89;458.66;0.00;0.00;0.62;;;;;9.40;1.00;;;;;;2284109;60;1565;-88
2022/01/06 22:32:40;414006.00;1.38;713.88;20334.00;0.07;35.85;;;;;9.90;1.00;;;;;;2283964;60;1931;-88
2022/01/06 22:35:09;316636.00;1.06;546.52;0.00;0.00;0.62;;;;;9.50;1.00;;;;;;2283959;61;1665;-88
2022/01/06 22:37:36;294610.00;0.98;508.65;0.00;0.00;0.62;;;;;9.90;1.00;;;;;;2284083;60;1151;-88